Time;durP1;ratioP1;P1;durP2;ratioP2;P2;SDS_P1;SDS_P2;PMS_P1;PMS_P2;Temp;Humidity;BMP_temperature;BMP_pressure;BME280_temperature;BME280_humidity;BME280_pressure;Samples;Min_cycle;Max_cycle;Signal;HPM_P1;HPM_P2
2024/01/09 00:00:50;;;;;;;65.80;36.40;;;;;;;;;;103726;1302;545327;-70
2024/01/09 00:04:28;;;;;;;47.90;18.20;;;;;;;;;;103740;1289;545082;-72
2024/01/09 00:08:06;;;;;;;80.70;42.40;;;;;;;;;;103652;1292;544907;-71
2024/01/09 00:11:42;;;;;;;50.80;18.10;;;;;;;;;;103617;1291;545016;-72
2024/01/09 00:15:20;;;;;;;85.40;44.00;;;;;;;;;;103719;1292;545307;-72
2024/01/09 00:19:03;;;;;;;53.10;19.30;;;;;;;;;;103481;1291;548145;-71
2024/01/09 00:22:35;;;;;;;46.60;18.80;;;;;;;;;;103783;1289;545313;-72
2024/01/09 00:26:13;;;;;;;76.30;40.90;;;;;;;;;;103422;1295;545334;-69
2024/01/09 00:29:50;;;;;;;80.30;42.70;;;;;;;;;;103710;1291;545153;-72
2024/01/09 00:33:24;;;;;;;72.20;40.50;;;;;;;;;;104636;1283;545325;-72
2024/01/09 00:37:05;;;;;;;70.00;38.00;;;;;;;;;;103689;1289;544889;-70
2024/01/09 00:40:42;;;;;;;53.90;20.10;;;;;;;;;;103629;1295;544876;-71
2024/01/09 00:44:20;;;;;;;90.10;47.90;;;;;;;;;;103672;1289;544791;-72
2024/01/09 00:48:17;;;;;;;79.50;40.50;;;;;;;;;;103620;1294;547801;-72
2024/01/09 00:51:34;;;;;;;50.40;18.70;;;;;;;;;;103793;1289;546492;-71
2024/01/09 00:55:15;;;;;;;57.60;20.90;;;;;;;;;;103727;1291;545507;-72
2024/01/09 00:58:49;;;;;;;78.90;42.80;;;;;;;;;;103753;1290;544763;-72
2024/01/09 01:02:27;;;;;;;73.70;40.30;;;;;;;;;;103787;1289;544748;-71
2024/01/09 01:06:05;;;;;;;50.20;19.80;;;;;;;;;;103815;1290;545277;-71
2024/01/09 01:09:42;;;;;;;61.30;22.80;;;;;;;;;;103918;1302;545588;-71
2024/01/09 01:13:19;;;;;;;84.50;44.10;;;;;;;;;;104174;1285;545044;-69
2024/01/09 01:16:53;;;;;;;91.50;47.10;;;;;;;;;;103735;1288;545388;-73
2024/01/09 01:20:35;;;;;;;62.00;22.60;;;;;;;;;;104746;1282;544748;-72
2024/01/09 01:24:12;;;;;;;81.00;26.90;;;;;;;;;;103744;1292;545343;-72
2024/01/09 01:27:49;;;;;;;100.50;28.90;;;;;;;;;;103839;1289;544958;-73
2024/01/09 01:31:23;;;;;;;100.50;32.40;;;;;;;;;;104007;1292;545287;-70
2024/01/09 01:35:04;;;;;;;81.70;27.90;;;;;;;;;;103778;1289;545908;-70
2024/01/09 01:38:42;;;;;;;80.70;28.40;;;;;;;;;;103678;1292;545520;-72
2024/01/09 01:42:20;;;;;;;73.30;23.90;;;;;;;;;;103915;1292;546151;-72
2024/01/09 01:45:57;;;;;;;111.60;54.90;;;;;;;;;;103639;1291;545480;-71
2024/01/09 01:49:34;;;;;;;76.50;26.80;;;;;;;;;;103728;1292;546215;-72
2024/01/09 01:53:12;;;;;;;76.80;25.80;;;;;;;;;;103828;1296;545159;-70
2024/01/09 01:56:50;;;;;;;78.50;28.20;;;;;;;;;;103696;1292;544947;-72
2024/01/09 02:00:27;;;;;;;75.90;27.10;;;;;;;;;;103914;1289;545076;-70
2024/01/09 02:04:05;;;;;;;112.90;56.90;;;;;;;;;;103718;1289;545766;-69
2024/01/09 02:07:44;;;;;;;154.20;72.00;;;;;;;;;;103692;1291;545383;-70
2024/01/09 02:11:20;;;;;;;125.10;36.80;;;;;;;;;;103715;1291;545424;-72
2024/01/09 02:14:56;;;;;;;165.40;77.70;;;;;;;;;;103681;1290;546202;-71
2024/01/09 02:18:30;;;;;;;90.60;33.20;;;;;;;;;;103779;1293;544838;-71
2024/01/09 02:22:13;;;;;;;133.90;43.40;;;;;;;;;;103695;1289;544812;-72
2024/01/09 02:25:50;;;;;;;119.40;38.20;;;;;;;;;;103715;1290;544724;-73
2024/01/09 02:29:23;;;;;;;106.10;37.00;;;;;;;;;;103788;1292;545332;-70
2024/01/09 02:33:06;;;;;;;109.80;35.90;;;;;;;;;;103739;1289;545823;-72
2024/01/09 02:36:41;;;;;;;115.30;38.30;;;;;;;;;;103559;1291;544952;-71
2024/01/09 02:40:19;;;;;;;91.90;35.30;;;;;;;;;;103691;1289;545605;-73
2024/01/09 02:43:56;;;;;;;100.20;35.50;;;;;;;;;;103559;1295;545503;-72
2024/01/09 02:47:34;;;;;;;95.80;32.70;;;;;;;;;;103716;1292;545018;-72
2024/01/09 02:51:11;;;;;;;100.30;33.40;;;;;;;;;;103775;1291;545205;-72
2024/01/09 02:54:49;;;;;;;150.80;74.80;;;;;;;;;;103680;1290;545559;-69
2024/01/09 02:58:26;;;;;;;151.50;75.50;;;;;;;;;;103805;1292;545058;-70
2024/01/09 03:02:03;;;;;;;95.80;32.90;;;;;;;;;;103764;1288;545979;-70
2024/01/09 03:05:41;;;;;;;141.20;69.50;;;;;;;;;;103763;1296;545020;-73
2024/01/09 03:09:19;;;;;;;146.00;71.70;;;;;;;;;;103806;1295;544769;-70
2024/01/09 03:12:56;;;;;;;132.60;68.10;;;;;;;;;;103744;1291;545733;-70
2024/01/09 03:16:34;;;;;;;92.60;33.80;;;;;;;;;;103683;1289;545619;-72
2024/01/09 03:20:10;;;;;;;94.40;32.40;;;;;;;;;;103787;1289;544999;-72
2024/01/09 03:23:49;;;;;;;134.00;68.20;;;;;;;;;;104001;1289;545836;-70
2024/01/09 03:27:22;;;;;;;125.60;65.20;;;;;;;;;;103920;1295;545458;-69
2024/01/09 03:31:03;;;;;;;119.40;60.90;;;;;;;;;;103721;1292;545033;-69
2024/01/09 03:34:41;;;;;;;87.90;30.50;;;;;;;;;;103599;1291;545388;-69
2024/01/09 03:38:18;;;;;;;83.80;27.70;;;;;;;;;;103591;1299;545506;-73
2024/01/09 03:41:56;;;;;;;80.20;28.20;;;;;;;;;;103804;1289;545993;-71
2024/01/09 03:45:29;;;;;;;95.60;50.70;;;;;;;;;;103881;1289;544915;-73
2024/01/09 03:49:11;;;;;;;66.20;23.70;;;;;;;;;;103829;1289;544951;-71
2024/01/09 03:52:44;;;;;;;71.40;26.10;;;;;;;;;;103752;1289;545971;-72
2024/01/09 03:56:26;;;;;;;66.80;23.80;;;;;;;;;;103912;1289;544964;-72
2024/01/09 04:00:04;;;;;;;73.20;27.60;;;;;;;;;;103739;1291;544886;-72
2024/01/09 04:03:40;;;;;;;95.40;51.00;;;;;;;;;;103675;1291;544934;-70
2024/01/09 04:07:19;;;;;;;67.00;24.30;;;;;;;;;;103849;1292;544627;-72
2024/01/09 04:10:55;;;;;;;86.50;47.20;;;;;;;;;;103792;1290;546212;-72
2024/01/09 04:14:33;;;;;;;60.90;22.20;;;;;;;;;;103619;1289;544926;-72
2024/01/09 04:18:12;;;;;;;111.90;54.30;;;;;;;;;;103754;1292;545950;-72
2024/01/09 04:21:48;;;;;;;189.10;84.30;;;;;;;;;;103830;1290;544974;-72
2024/01/09 04:25:25;;;;;;;144.60;40.80;;;;;;;;;;103590;1291;546172;-71
2024/01/09 04:29:03;;;;;;;180.80;76.80;;;;;;;;;;103648;1291;545737;-72
2024/01/09 04:32:40;;;;;;;173.70;73.10;;;;;;;;;;104568;1280;545168;-69
2024/01/09 04:36:18;;;;;;;223.70;98.20;;;;;;;;;;103820;1289;544826;-73
2024/01/09 04:39:55;;;;;;;151.20;66.60;;;;;;;;;;103707;1296;545006;-69
2024/01/09 04:43:33;;;;;;;74.90;25.90;;;;;;;;;;103738;1289;544962;-69
2024/01/09 04:47:15;;;;;;;104.60;53.20;;;;;;;;;;103784;1292;545963;-72
2024/01/09 04:50:48;;;;;;;121.80;59.70;;;;;;;;;;104170;1290;545099;-70
2024/01/09 04:54:25;;;;;;;127.20;63.30;;;;;;;;;;103746;1292;545072;-72
2024/01/09 04:57:59;;;;;;;119.30;62.20;;;;;;;;;;103829;1293;544953;-70
2024/01/09 05:01:41;;;;;;;111.00;55.40;;;;;;;;;;103603;1295;546021;-72
2024/01/09 05:05:24;;;;;;;104.20;51.50;;;;;;;;;;103537;1291;548271;-69
2024/01/09 05:08:55;;;;;;;72.30;25.40;;;;;;;;;;103762;1292;544904;-72
2024/01/09 05:12:32;;;;;;;100.40;52.00;;;;;;;;;;103795;1289;545433;-72
2024/01/09 05:16:09;;;;;;;76.00;25.70;;;;;;;;;;103465;1293;545887;-71
2024/01/09 05:19:48;;;;;;;73.90;24.80;;;;;;;;;;103773;1296;544975;-72
2024/01/09 05:23:31;;;;;;;70.30;25.10;;;;;;;;;;104030;1285;548000;-72
2024/01/09 05:27:03;;;;;;;101.70;53.00;;;;;;;;;;103777;1292;545465;-72
2024/01/09 05:30:37;;;;;;;69.80;25.50;;;;;;;;;;103804;1289;544789;-69
2024/01/09 05:34:17;;;;;;;109.00;56.10;;;;;;;;;;104532;1289;545440;-71
2024/01/09 05:37:54;;;;;;;113.80;57.40;;;;;;;;;;103613;1292;544823;-72
2024/01/09 05:41:32;;;;;;;110.00;57.00;;;;;;;;;;103740;1289;544831;-73
2024/01/09 05:45:10;;;;;;;125.10;64.80;;;;;;;;;;103879;1288;545911;-72
2024/01/09 05:48:47;;;;;;;91.70;29.60;;;;;;;;;;104030;1289;544861;-70
2024/01/09 05:52:25;;;;;;;119.90;58.30;;;;;;;;;;103593;1294;544860;-72
2024/01/09 05:56:08;;;;;;;109.60;56.00;;;;;;;;;;103722;1292;544976;-70
2024/01/09 05:59:40;;;;;;;108.00;55.10;;;;;;;;;;103758;1289;546407;-71
2024/01/09 06:03:17;;;;;;;114.70;55.70;;;;;;;;;;103731;1292;544846;-69
2024/01/09 06:07:00;;;;;;;83.40;27.50;;;;;;;;;;103436;1295;548013;-73
2024/01/09 06:10:32;;;;;;;83.20;27.60;;;;;;;;;;103675;1289;545048;-70
2024/01/09 06:14:09;;;;;;;86.60;27.60;;;;;;;;;;103669;1289;544982;-70
2024/01/09 06:17:48;;;;;;;91.10;25.90;;;;;;;;;;103609;1293;545209;-72
2024/01/09 06:21:20;;;;;;;72.60;25.60;;;;;;;;;;103904;1296;545259;-70
2024/01/09 06:25:01;;;;;;;113.50;55.00;;;;;;;;;;103893;1292;544753;-72
2024/01/09 06:28:39;;;;;;;75.50;24.30;;;;;;;;;;103950;1287;545057;-73
2024/01/09 06:32:17;;;;;;;78.30;25.80;;;;;;;;;;104059;1291;545009;-70
2024/01/09 06:35:54;;;;;;;82.90;27.20;;;;;;;;;;103812;1292;544846;-71
2024/01/09 06:39:38;;;;;;;98.60;51.20;;;;;;;;;;104198;1286;548009;-73
2024/01/09 06:43:09;;;;;;;76.00;26.50;;;;;;;;;;103453;1295;545095;-70
2024/01/09 06:46:52;;;;;;;92.30;48.60;;;;;;;;;;103421;1291;547918;-69
2024/01/09 06:50:24;;;;;;;170.50;85.30;;;;;;;;;;103719;1292;544989;-72
2024/01/09 06:54:02;;;;;;;176.00;87.40;;;;;;;;;;104052;1287;545017;-72
2024/01/09 06:57:45;;;;;;;103.10;52.50;;;;;;;;;;103637;1290;548071;-70
2024/01/09 07:01:17;;;;;;;71.10;22.30;;;;;;;;;;103582;1291;545004;-73
2024/01/09 07:04:54;;;;;;;94.80;48.30;;;;;;;;;;103676;1289;544861;-72
2024/01/09 07:08:32;;;;;;;95.00;47.00;;;;;;;;;;103669;1289;544788;-72
2024/01/09 07:12:09;;;;;;;110.00;55.30;;;;;;;;;;103774;1288;544859;-72
2024/01/09 07:15:46;;;;;;;81.90;29.80;;;;;;;;;;103920;1289;544754;-73
2024/01/09 07:19:20;;;;;;;170.30;77.30;;;;;;;;;;103880;1292;545930;-73
2024/01/09 07:23:02;;;;;;;129.50;39.40;;;;;;;;;;103699;1291;545481;-71
2024/01/09 07:26:42;;;;;;;140.60;43.20;;;;;;;;;;103716;1292;545319;-72
2024/01/09 07:30:18;;;;;;;130.80;41.20;;;;;;;;;;103636;1291;544772;-73
2024/01/09 07:33:55;;;;;;;151.70;44.60;;;;;;;;;;103817;1289;544979;-73
2024/01/09 07:37:31;;;;;;;133.20;39.60;;;;;;;;;;103757;1290;545236;-71
2024/01/09 07:41:10;;;;;;;165.90;80.70;;;;;;;;;;103864;1293;544774;-72
2024/01/09 07:44:52;;;;;;;124.10;38.60;;;;;;;;;;103608;1294;547968;-73
2024/01/09 07:48:23;;;;;;;162.20;83.00;;;;;;;;;;105825;1289;545331;-71
2024/01/09 07:52:01;;;;;;;327.00;145.20;;;;;;;;;;103823;1292;546010;-70
2024/01/09 07:55:40;;;;;;;452.70;217.20;;;;;;;;;;103696;1295;545429;-72
2024/01/09 07:59:12;;;;;;;254.10;74.90;;;;;;;;;;103825;1292;545336;-70
2024/01/09 08:02:53;;;;;;;114.80;39.40;;;;;;;;;;103819;1289;545040;-73
2024/01/09 08:06:27;;;;;;;173.30;83.90;;;;;;;;;;103734;1289;545056;-70
2024/01/09 08:10:09;;;;;;;109.90;38.80;;;;;;;;;;103805;1291;544886;-72
2024/01/09 08:13:47;;;;;;;113.40;58.30;;;;;;;;;;103878;1289;545033;-72
2024/01/09 08:17:19;;;;;;;119.50;60.90;;;;;;;;;;103875;1289;546461;-70
2024/01/09 08:21:00;;;;;;;109.60;58.60;;;;;;;;;;103698;1292;546106;-72
2024/01/09 08:24:38;;;;;;;76.80;30.10;;;;;;;;;;103718;1300;544779;-72
2024/01/09 08:28:16;;;;;;;85.00;29.50;;;;;;;;;;103935;1289;545333;-72
2024/01/09 08:31:53;;;;;;;95.40;52.60;;;;;;;;;;103723;1292;545773;-72
2024/01/09 08:35:30;;;;;;;94.40;52.00;;;;;;;;;;103801;1289;545955;-73
2024/01/09 08:39:07;;;;;;;97.20;53.70;;;;;;;;;;103751;1290;544810;-72
2024/01/09 08:42:42;;;;;;;95.00;52.40;;;;;;;;;;103778;1291;544817;-73
2024/01/09 08:46:23;;;;;;;99.70;54.00;;;;;;;;;;103701;1289;545240;-72
2024/01/09 08:50:01;;;;;;;105.70;54.80;;;;;;;;;;103714;1291;544936;-72
2024/01/09 08:53:38;;;;;;;106.80;57.90;;;;;;;;;;104013;1289;545589;-73
2024/01/09 08:57:15;;;;;;;110.10;59.70;;;;;;;;;;103795;1289;545349;-72
2024/01/09 09:00:52;;;;;;;96.30;54.20;;;;;;;;;;103759;1293;544856;-72
2024/01/09 09:04:31;;;;;;;85.70;49.20;;;;;;;;;;103786;1289;545020;-73
2024/01/09 09:08:08;;;;;;;89.30;50.60;;;;;;;;;;103925;1292;544841;-72
2024/01/09 09:11:45;;;;;;;98.00;52.30;;;;;;;;;;103707;1292;544970;-71
2024/01/09 09:15:22;;;;;;;98.30;56.10;;;;;;;;;;103655;1291;545264;-72
2024/01/09 09:19:02;;;;;;;100.90;54.40;;;;;;;;;;103710;1290;544745;-70
2024/01/09 09:22:38;;;;;;;92.10;53.00;;;;;;;;;;103985;1292;544976;-72
2024/01/09 09:26:15;;;;;;;94.30;54.00;;;;;;;;;;103717;1289;545439;-72
2024/01/09 09:29:55;;;;;;;98.20;55.30;;;;;;;;;;103866;1289;545780;-71
2024/01/09 09:33:33;;;;;;;103.00;56.70;;;;;;;;;;103721;1289;545156;-72
2024/01/09 09:37:07;;;;;;;110.30;57.90;;;;;;;;;;103805;1289;545722;-70
2024/01/09 09:40:45;;;;;;;91.70;52.50;;;;;;;;;;104176;1285;545521;-71
2024/01/09 09:44:23;;;;;;;85.80;51.10;;;;;;;;;;103790;1289;544986;-70
2024/01/09 09:48:00;;;;;;;82.60;46.10;;;;;;;;;;103726;1291;545053;-73
2024/01/09 09:51:44;;;;;;;91.50;51.90;;;;;;;;;;103436;1292;547855;-71
2024/01/09 09:55:16;;;;;;;98.00;52.80;;;;;;;;;;104791;1280;544920;-71
2024/01/09 09:58:52;;;;;;;90.00;49.40;;;;;;;;;;103750;1289;545063;-71
2024/01/09 10:02:30;;;;;;;78.80;45.00;;;;;;;;;;103791;1289;544707;-71
2024/01/09 10:06:07;;;;;;;107.00;59.60;;;;;;;;;;103587;1296;545151;-71
2024/01/09 10:09:48;;;;;;;77.40;44.90;;;;;;;;;;103736;1291;545693;-71
2024/01/09 10:13:22;;;;;;;94.50;54.10;;;;;;;;;;103614;1291;545874;-71
2024/01/09 10:17:03;;;;;;;99.30;55.20;;;;;;;;;;103838;1289;544740;-71
2024/01/09 10:20:37;;;;;;;137.20;73.80;;;;;;;;;;103730;1295;545302;-70
2024/01/09 10:24:15;;;;;;;81.70;47.70;;;;;;;;;;103804;1289;544782;-71
2024/01/09 10:27:49;;;;;;;70.40;43.70;;;;;;;;;;103877;1289;544731;-72
2024/01/09 10:31:30;;;;;;;64.50;36.70;;;;;;;;;;103457;1295;545445;-73
2024/01/09 10:35:07;;;;;;;183.30;101.20;;;;;;;;;;103624;1292;545007;-73
2024/01/09 10:38:46;;;;;;;79.50;47.30;;;;;;;;;;103710;1289;544915;-70
2024/01/09 10:42:22;;;;;;;76.40;43.50;;;;;;;;;;103767;1289;545053;-71
2024/01/09 10:46:00;;;;;;;76.90;45.60;;;;;;;;;;103779;1289;545383;-69
2024/01/09 10:49:40;;;;;;;74.70;43.00;;;;;;;;;;103689;1289;545032;-70
2024/01/09 10:53:15;;;;;;;66.20;39.00;;;;;;;;;;103762;1292;544953;-71
2024/01/09 10:56:52;;;;;;;79.70;50.30;;;;;;;;;;103713;1290;545240;-70
2024/01/09 11:00:30;;;;;;;81.10;47.00;;;;;;;;;;103769;1289;544989;-73
2024/01/09 11:04:07;;;;;;;68.00;40.10;;;;;;;;;;103603;1290;544991;-72
2024/01/09 11:07:45;;;;;;;73.00;42.90;;;;;;;;;;103825;1289;544841;-73
2024/01/09 11:11:19;;;;;;;76.50;46.70;;;;;;;;;;103863;1289;545253;-73
2024/01/09 11:15:05;;;;;;;88.80;49.90;;;;;;;;;;103831;1289;545389;-71
2024/01/09 11:18:37;;;;;;;81.30;48.80;;;;;;;;;;103853;1289;545448;-73
2024/01/09 11:22:16;;;;;;;76.10;42.70;;;;;;;;;;103783;1292;545515;-73
2024/01/09 11:25:53;;;;;;;66.40;39.40;;;;;;;;;;103654;1295;545039;-70
2024/01/09 11:29:51;;;;;;;65.20;39.40;;;;;;;;;;103709;1289;545932;-71
2024/01/09 11:33:25;;;;;;;66.30;39.20;;;;;;;;;;103699;1311;545540;-71
2024/01/09 11:36:44;;;;;;;63.40;37.90;;;;;;;;;;103819;1292;544836;-71
2024/01/09 11:40:21;;;;;;;64.10;39.20;;;;;;;;;;103697;1292;545394;-71
2024/01/09 11:44:00;;;;;;;64.40;38.30;;;;;;;;;;103775;1289;545012;-71
2024/01/09 11:47:37;;;;;;;58.30;35.50;;;;;;;;;;103740;1291;545060;-71
2024/01/09 11:51:13;;;;;;;62.30;37.00;;;;;;;;;;103739;1291;545638;-73
2024/01/09 11:54:51;;;;;;;59.90;36.00;;;;;;;;;;103977;1288;545037;-71
2024/01/09 11:58:29;;;;;;;59.80;36.50;;;;;;;;;;103780;1292;545646;-71
2024/01/09 12:02:06;;;;;;;58.20;33.70;;;;;;;;;;103787;1292;545173;-74
2024/01/09 12:05:43;;;;;;;56.80;34.50;;;;;;;;;;103801;1289;544884;-70
2024/01/09 12:09:17;;;;;;;56.20;34.80;;;;;;;;;;104063;1292;544756;-71
2024/01/09 12:13:03;;;;;;;60.50;36.00;;;;;;;;;;103998;1292;545457;-71
2024/01/09 12:16:36;;;;;;;68.70;41.80;;;;;;;;;;103896;1288;546449;-72
2024/01/09 12:20:16;;;;;;;59.00;35.40;;;;;;;;;;103838;1288;546491;-72
2024/01/09 12:23:59;;;;;;;64.50;37.20;;;;;;;;;;103652;1289;546613;-72
2024/01/09 12:27:30;;;;;;;58.90;36.00;;;;;;;;;;103792;1289;545044;-72
2024/01/09 12:31:07;;;;;;;60.80;36.10;;;;;;;;;;103735;1291;545270;-72
2024/01/09 12:34:43;;;;;;;56.50;35.70;;;;;;;;;;103730;1288;544780;-72
2024/01/09 12:38:22;;;;;;;53.60;32.30;;;;;;;;;;103718;1291;545516;-71
2024/01/09 12:42:10;;;;;;;61.50;38.50;;;;;;;;;;103676;1292;545078;-71
2024/01/09 12:45:37;;;;;;;57.30;35.60;;;;;;;;;;103734;1290;545981;-71
2024/01/09 12:49:14;;;;;;;57.80;34.80;;;;;;;;;;104206;1289;545599;-71
2024/01/09 12:52:51;;;;;;;52.20;31.80;;;;;;;;;;103705;1290;545763;-71
2024/01/09 12:56:29;;;;;;;50.80;31.10;;;;;;;;;;103770;1289;545046;-72
2024/01/09 13:00:06;;;;;;;53.90;33.00;;;;;;;;;;103774;1300;545589;-72
2024/01/09 13:03:43;;;;;;;51.60;31.90;;;;;;;;;;103770;1289;544908;-74
2024/01/09 13:07:21;;;;;;;51.00;31.20;;;;;;;;;;103746;1290;545726;-71
2024/01/09 13:11:00;;;;;;;48.00;30.30;;;;;;;;;;103887;1292;544992;-71
2024/01/09 13:14:35;;;;;;;48.00;29.90;;;;;;;;;;103794;1288;545938;-74
2024/01/09 13:18:13;;;;;;;56.50;32.30;;;;;;;;;;103962;1289;544724;-71
2024/01/09 13:21:50;;;;;;;50.40;29.40;;;;;;;;;;103804;1290;545548;-71
2024/01/09 13:25:28;;;;;;;53.80;31.20;;;;;;;;;;104082;1286;544853;-71
2024/01/09 13:29:05;;;;;;;49.50;33.10;;;;;;;;;;103618;1294;545031;-71
2024/01/09 13:32:43;;;;;;;48.60;29.60;;;;;;;;;;103719;1289;544817;-71
2024/01/09 13:36:25;;;;;;;48.90;30.30;;;;;;;;;;103621;1289;547998;-74
2024/01/09 13:39:54;;;;;;;47.20;30.30;;;;;;;;;;103796;1289;544989;-72
2024/01/09 13:43:35;;;;;;;55.30;32.10;;;;;;;;;;103597;1294;545015;-72
2024/01/09 13:47:12;;;;;;;51.80;31.50;;;;;;;;;;103835;1288;544983;-74
2024/01/09 13:50:49;;;;;;;48.70;29.50;;;;;;;;;;103721;1289;545053;-73
2024/01/09 13:54:27;;;;;;;48.50;29.20;;;;;;;;;;103794;1289;544982;-72
2024/01/09 13:58:04;;;;;;;47.00;27.60;;;;;;;;;;103732;1289;545002;-71
2024/01/09 14:01:43;;;;;;;49.20;30.40;;;;;;;;;;103710;1291;545483;-75
2024/01/09 14:05:19;;;;;;;47.90;28.70;;;;;;;;;;103743;1295;545984;-74
2024/01/09 14:08:57;;;;;;;49.20;29.70;;;;;;;;;;103790;1302;545558;-72
2024/01/09 14:12:35;;;;;;;51.10;30.30;;;;;;;;;;103725;1291;545998;-74
2024/01/09 14:16:12;;;;;;;49.50;29.40;;;;;;;;;;103781;1289;545979;-74
2024/01/09 14:19:49;;;;;;;49.00;27.70;;;;;;;;;;103726;1292;545675;-72
2024/01/09 14:23:27;;;;;;;51.60;29.40;;;;;;;;;;103769;1291;545038;-74
2024/01/09 14:27:04;;;;;;;50.20;30.60;;;;;;;;;;103809;1288;545133;-71
2024/01/09 14:30:42;;;;;;;49.20;26.90;;;;;;;;;;103805;1295;544974;-71
2024/01/09 14:34:19;;;;;;;46.70;27.90;;;;;;;;;;103758;1291;544811;-74
2024/01/09 14:37:57;;;;;;;44.90;26.60;;;;;;;;;;103918;1289;545126;-71
2024/01/09 14:41:34;;;;;;;45.30;27.10;;;;;;;;;;103578;1293;545487;-73
2024/01/09 14:45:12;;;;;;;46.60;28.80;;;;;;;;;;104349;1283;545004;-74
2024/01/09 14:48:49;;;;;;;50.60;29.20;;;;;;;;;;103810;1291;545067;-74
2024/01/09 14:52:27;;;;;;;50.10;28.30;;;;;;;;;;104642;1283;544964;-71
2024/01/09 14:56:04;;;;;;;52.70;28.60;;;;;;;;;;103622;1291;545462;-73
2024/01/09 14:59:44;;;;;;;50.40;29.30;;;;;;;;;;104288;1286;544846;-73
2024/01/09 15:03:19;;;;;;;49.00;28.60;;;;;;;;;;104013;1289;545058;-73
2024/01/09 15:06:57;;;;;;;81.80;47.30;;;;;;;;;;103702;1289;544884;-73
2024/01/09 15:10:30;;;;;;;67.60;39.00;;;;;;;;;;104508;1290;545591;-71
2024/01/09 15:14:08;;;;;;;58.90;33.80;;;;;;;;;;103890;1289;544754;-73
2024/01/09 15:17:49;;;;;;;75.70;41.60;;;;;;;;;;103751;1295;546634;-73
2024/01/09 15:21:29;;;;;;;84.50;46.50;;;;;;;;;;103664;1292;544842;-73
2024/01/09 15:25:04;;;;;;;89.50;49.50;;;;;;;;;;103742;1289;545075;-71
2024/01/09 15:28:41;;;;;;;91.20;51.00;;;;;;;;;;103768;1289;545036;-73
2024/01/09 15:32:18;;;;;;;95.80;51.20;;;;;;;;;;104421;1285;544764;-73
2024/01/09 15:35:56;;;;;;;93.60;51.00;;;;;;;;;;103758;1289;545011;-73
2024/01/09 15:39:36;;;;;;;86.40;45.90;;;;;;;;;;103728;1295;545435;-70
2024/01/09 15:43:12;;;;;;;170.30;89.20;;;;;;;;;;103761;1289;544800;-71
2024/01/09 15:46:48;;;;;;;158.70;83.10;;;;;;;;;;103588;1297;544992;-70
2024/01/09 15:50:28;;;;;;;116.30;58.70;;;;;;;;;;103779;1289;546205;-72
2024/01/09 15:54:04;;;;;;;106.40;56.50;;;;;;;;;;103791;1289;544958;-72
2024/01/09 15:57:44;;;;;;;133.20;80.10;;;;;;;;;;103832;1289;546396;-71
2024/01/09 16:01:24;;;;;;;151.00;79.50;;;;;;;;;;103648;1295;544950;-70
2024/01/09 16:04:56;;;;;;;100.50;54.40;;;;;;;;;;103760;1289;545576;-71
2024/01/09 16:08:33;;;;;;;105.30;56.20;;;;;;;;;;103889;1288;544904;-72
2024/01/09 16:12:11;;;;;;;124.50;63.70;;;;;;;;;;103701;1290;545387;-72
2024/01/09 16:15:47;;;;;;;82.70;29.30;;;;;;;;;;103681;1291;545465;-71
2024/01/09 16:19:39;;;;;;;116.70;61.20;;;;;;;;;;103191;1308;546532;-70
2024/01/09 16:23:02;;;;;;;119.60;62.30;;;;;;;;;;103812;1291;545311;-70
2024/01/09 16:26:40;;;;;;;118.40;62.90;;;;;;;;;;103735;1290;545018;-72
2024/01/09 16:30:18;;;;;;;118.70;61.30;;;;;;;;;;103580;1295;544831;-70
2024/01/09 16:33:55;;;;;;;107.00;57.00;;;;;;;;;;103769;1290;544952;-71
2024/01/09 16:37:54;;;;;;;109.20;56.50;;;;;;;;;;103625;1294;547888;-72
2024/01/09 16:41:11;;;;;;;83.40;29.90;;;;;;;;;;103697;1289;544780;-70
2024/01/09 16:44:48;;;;;;;144.30;72.20;;;;;;;;;;103757;1292;545024;-72
2024/01/09 16:48:26;;;;;;;169.10;85.70;;;;;;;;;;103828;1291;545943;-72
2024/01/09 16:51:59;;;;;;;187.10;88.00;;;;;;;;;;103919;1289;545019;-72
2024/01/09 16:55:40;;;;;;;181.30;86.30;;;;;;;;;;103685;1292;544822;-72
2024/01/09 16:59:18;;;;;;;176.60;83.00;;;;;;;;;;103602;1292;545552;-70
2024/01/09 17:02:55;;;;;;;173.50;84.70;;;;;;;;;;103874;1290;545428;-69
2024/01/09 17:06:52;;;;;;;180.30;84.80;;;;;;;;;;103667;1289;547951;-70
2024/01/09 17:10:10;;;;;;;176.00;84.70;;;;;;;;;;103754;1292;544864;-70
2024/01/09 17:13:48;;;;;;;176.80;85.40;;;;;;;;;;103611;1291;545419;-72
2024/01/09 17:17:25;;;;;;;133.80;41.60;;;;;;;;;;103768;1289;545881;-73
2024/01/09 17:21:02;;;;;;;187.00;88.70;;;;;;;;;;103688;1293;545415;-70
2024/01/09 17:24:41;;;;;;;194.80;92.10;;;;;;;;;;103796;1289;546213;-72
2024/01/09 17:28:17;;;;;;;192.50;93.20;;;;;;;;;;103797;1294;544777;-72
2024/01/09 17:31:55;;;;;;;158.60;76.70;;;;;;;;;;103823;1289;544839;-70
2024/01/09 17:35:28;;;;;;;94.30;31.50;;;;;;;;;;103823;1289;545890;-70
2024/01/09 17:39:10;;;;;;;176.00;78.20;;;;;;;;;;103847;1293;544774;-72
2024/01/09 17:42:47;;;;;;;157.60;72.50;;;;;;;;;;103938;1292;544964;-72
2024/01/09 17:46:24;;;;;;;138.60;67.40;;;;;;;;;;103740;1292;544877;-72
2024/01/09 17:50:04;;;;;;;135.00;66.30;;;;;;;;;;103700;1289;545394;-70
2024/01/09 17:53:40;;;;;;;138.50;65.70;;;;;;;;;;103816;1295;544937;-70
2024/01/09 17:57:17;;;;;;;156.80;77.10;;;;;;;;;;103681;1291;545418;-70
2024/01/09 18:00:54;;;;;;;144.20;68.50;;;;;;;;;;103774;1289;544918;-70
2024/01/09 18:04:32;;;;;;;137.90;70.00;;;;;;;;;;103750;1292;545341;-69
2024/01/09 18:08:09;;;;;;;126.60;66.40;;;;;;;;;;103786;1291;545021;-70
2024/01/09 18:11:43;;;;;;;92.50;29.60;;;;;;;;;;103793;1289;545846;-72
2024/01/09 18:15:24;;;;;;;85.70;28.80;;;;;;;;;;103511;1292;545062;-72
2024/01/09 18:19:01;;;;;;;134.70;70.20;;;;;;;;;;103537;1295;545783;-70
2024/01/09 18:22:40;;;;;;;139.70;68.50;;;;;;;;;;103756;1289;545510;-70
2024/01/09 18:26:17;;;;;;;135.80;69.10;;;;;;;;;;103672;1295;545507;-72
2024/01/09 18:29:55;;;;;;;134.30;67.60;;;;;;;;;;103900;1295;546169;-72
2024/01/09 18:33:32;;;;;;;130.50;66.70;;;;;;;;;;104199;1289;545460;-72
2024/01/09 18:37:11;;;;;;;81.60;30.50;;;;;;;;;;103831;1289;545447;-70
2024/01/09 18:40:43;;;;;;;123.70;62.70;;;;;;;;;;103842;1289;545469;-70
2024/01/09 18:44:28;;;;;;;124.50;65.80;;;;;;;;;;103792;1290;545140;-70
2024/01/09 18:48:02;;;;;;;141.00;69.90;;;;;;;;;;103666;1291;544766;-70
2024/01/09 18:51:39;;;;;;;141.20;68.80;;;;;;;;;;103843;1289;544994;-72
2024/01/09 18:55:17;;;;;;;137.70;67.70;;;;;;;;;;103771;1291;544987;-70
2024/01/09 18:58:54;;;;;;;129.00;63.90;;;;;;;;;;103819;1301;545022;-72
2024/01/09 19:02:33;;;;;;;81.80;29.40;;;;;;;;;;103951;1288;545435;-72
2024/01/09 19:06:09;;;;;;;127.60;64.10;;;;;;;;;;103759;1292;544999;-70
2024/01/09 19:09:48;;;;;;;108.90;34.00;;;;;;;;;;103734;1289;545121;-69
2024/01/09 19:13:24;;;;;;;136.50;68.40;;;;;;;;;;103761;1289;546031;-72
2024/01/09 19:17:01;;;;;;;131.90;67.50;;;;;;;;;;103767;1292;545901;-71
2024/01/09 19:20:39;;;;;;;141.80;71.60;;;;;;;;;;103695;1290;545329;-72
2024/01/09 19:24:16;;;;;;;136.80;70.40;;;;;;;;;;103756;1289;544799;-72
2024/01/09 19:27:54;;;;;;;150.40;73.90;;;;;;;;;;103663;1292;544779;-72
2024/01/09 19:31:31;;;;;;;146.40;76.00;;;;;;;;;;103773;1289;544999;-72
2024/01/09 19:35:12;;;;;;;177.10;86.00;;;;;;;;;;103584;1292;546643;-72
2024/01/09 19:38:46;;;;;;;192.00;89.10;;;;;;;;;;103654;1292;545253;-73
2024/01/09 19:42:23;;;;;;;202.90;96.70;;;;;;;;;;103628;1292;545042;-72
2024/01/09 19:45:57;;;;;;;173.40;86.10;;;;;;;;;;103748;1294;545270;-70
2024/01/09 19:49:42;;;;;;;162.50;82.10;;;;;;;;;;103706;1289;544970;-72
2024/01/09 19:53:16;;;;;;;159.20;80.70;;;;;;;;;;103649;1291;544962;-72
2024/01/09 19:56:59;;;;;;;162.00;85.00;;;;;;;;;;104160;1289;548578;-73
2024/01/09 20:00:31;;;;;;;181.60;91.20;;;;;;;;;;103851;1292;544845;-72
2024/01/09 20:04:08;;;;;;;135.60;44.90;;;;;;;;;;103738;1290;545268;-73
2024/01/09 20:07:46;;;;;;;193.90;95.30;;;;;;;;;;103908;1292;545022;-72
2024/01/09 20:11:27;;;;;;;178.20;89.00;;;;;;;;;;103619;1291;545030;-72
2024/01/09 20:15:00;;;;;;;152.50;76.60;;;;;;;;;;103810;1290;544960;-72
2024/01/09 20:18:39;;;;;;;157.70;80.70;;;;;;;;;;103752;1290;544922;-70